sensor_id;sensor_type;location;lat;lon;timestamp;pressure;altitude;pressure_sealevel;temperature;humidity
6899;BME280;3488;42.616;23.350;2023-02-14T00:01:08;62197.38;;;1.92;85.98
6899;BME280;3488;42.616;23.350;2023-02-14T00:03:35;62200.53;;;1.97;86.36
6899;BME280;3488;42.616;23.350;2023-02-14T00:06:07;62202.97;;;1.95;87.98
6899;BME280;3488;42.616;23.350;2023-02-14T00:08:34;62197.44;;;1.94;88.91
6899;BME280;3488;42.616;23.350;2023-02-14T00:11:02;62201.03;;;1.98;88.96
6899;BME280;3488;42.616;23.350;2023-02-14T00:13:29;62194.94;;;1.94;89.39
6899;BME280;3488;42.616;23.350;2023-02-14T00:15:56;62194.88;;;1.92;90.11
6899;BME280;3488;42.616;23.350;2023-02-14T00:18:23;62186.66;;;1.84;90.13
6899;BME280;3488;42.616;23.350;2023-02-14T00:21:11;62185.56;;;1.80;90.41
6899;BME280;3488;42.616;23.350;2023-02-14T00:23:39;62180.44;;;1.75;90.92
6899;BME280;3488;42.616;23.350;2023-02-14T00:26:12;62170.22;;;1.68;91.94
6899;BME280;3488;42.616;23.350;2023-02-14T00:28:39;62167.63;;;1.63;92.40
6899;BME280;3488;42.616;23.350;2023-02-14T00:31:06;62155.94;;;1.56;92.52
6899;BME280;3488;42.616;23.350;2023-02-14T00:33:35;62150.81;;;1.51;94.03
6899;BME280;3488;42.616;23.350;2023-02-14T00:36:03;62159.41;;;1.55;94.19
6899;BME280;3488;42.616;23.350;2023-02-14T00:38:30;62160.44;;;1.56;94.01
6899;BME280;3488;42.616;23.350;2023-02-14T00:40:57;62158.38;;;1.54;94.52
6899;BME280;3488;42.616;23.350;2023-02-14T00:43:24;62154.84;;;1.53;94.81
6899;BME280;3488;42.616;23.350;2023-02-14T00:45:51;62151.69;;;1.47;94.32
6899;BME280;3488;42.616;23.350;2023-02-14T00:48:18;62155.94;;;1.56;94.33
6899;BME280;3488;42.616;23.350;2023-02-14T00:50:47;62158.38;;;1.54;94.07
6899;BME280;3488;42.616;23.350;2023-02-14T00:53:14;62161.47;;;1.57;94.23
6899;BME280;3488;42.616;23.350;2023-02-14T00:55:43;62159.41;;;1.55;93.93
6899;BME280;3488;42.616;23.350;2023-02-14T00:58:11;62153.81;;;1.52;93.57
6899;BME280;3488;42.616;23.350;2023-02-14T01:00:38;62150.22;;;1.48;93.46
6899;BME280;3488;42.616;23.350;2023-02-14T01:03:05;62149.72;;;1.48;93.85
6899;BME280;3488;42.616;23.350;2023-02-14T01:05:31;62144.63;;;1.45;93.96
6899;BME280;3488;42.616;23.350;2023-02-14T01:08:00;62152.28;;;1.50;93.82
6899;BME280;3488;42.616;23.350;2023-02-14T01:10:27;62150.13;;;1.43;93.77
6899;BME280;3488;42.616;23.350;2023-02-14T01:12:55;62145.03;;;1.41;94.05
6899;BME280;3488;42.616;23.350;2023-02-14T01:15:22;62151.22;;;1.47;94.42
6899;BME280;3488;42.616;23.350;2023-02-14T01:17:49;62144.13;;;1.45;93.75
6899;BME280;3488;42.616;23.350;2023-02-14T01:20:17;62146.19;;;1.47;93.19
6899;BME280;3488;42.616;23.350;2023-02-14T01:22:43;62156.34;;;1.52;92.69
6899;BME280;3488;42.616;23.350;2023-02-14T01:25:12;62149.19;;;1.47;92.81
6899;BME280;3488;42.616;23.350;2023-02-14T01:27:39;62149.59;;;1.43;93.19
6899;BME280;3488;42.616;23.350;2023-02-14T01:30:07;62147.66;;;1.46;93.23
6899;BME280;3488;42.616;23.350;2023-02-14T01:32:34;62157.75;;;1.48;93.70
6899;BME280;3488;42.616;23.350;2023-02-14T01:35:01;62143.69;;;1.47;93.37
6899;BME280;3488;42.616;23.350;2023-02-14T01:37:29;62141.56;;;1.42;93.33
6899;BME280;3488;42.616;23.350;2023-02-14T01:39:56;62134.94;;;1.38;93.03
6899;BME280;3488;42.616;23.350;2023-02-14T01:42:24;62147.13;;;1.45;92.91
6899;BME280;3488;42.616;23.350;2023-02-14T01:45:02;62138.03;;;1.41;92.97
6899;BME280;3488;42.616;23.350;2023-02-14T01:47:35;62142.94;;;1.36;92.31
6899;BME280;3488;42.616;23.350;2023-02-14T01:50:06;62142.53;;;1.41;92.14
6899;BME280;3488;42.616;23.350;2023-02-14T01:52:36;62145.59;;;1.44;91.81
6899;BME280;3488;42.616;23.350;2023-02-14T01:55:08;62148.63;;;1.44;91.94
6899;BME280;3488;42.616;23.350;2023-02-14T01:57:42;62149.66;;;1.45;90.96
6899;BME280;3488;42.616;23.350;2023-02-14T02:00:10;62150.16;;;1.46;91.21
6899;BME280;3488;42.616;23.350;2023-02-14T02:03:10;62148.69;;;1.47;91.61
6899;BME280;3488;42.616;23.350;2023-02-14T02:05:41;62146.19;;;1.47;91.86
6899;BME280;3488;42.616;23.350;2023-02-14T02:08:10;62145.59;;;1.44;91.33
6899;BME280;3488;42.616;23.350;2023-02-14T02:10:37;62154.31;;;1.52;91.64
6899;BME280;3488;42.616;23.350;2023-02-14T02:13:08;62156.84;;;1.52;92.04
6899;BME280;3488;42.616;23.350;2023-02-14T02:15:46;62161.47;;;1.57;92.54
6899;BME280;3488;42.616;23.350;2023-02-14T02:18:19;62156.84;;;1.52;92.71
6899;BME280;3488;42.616;23.350;2023-02-14T02:24:21;62150.69;;;1.46;92.63
6899;BME280;3488;42.616;23.350;2023-02-14T02:27:15;62146.13;;;1.44;92.47
6899;BME280;3488;42.616;23.350;2023-02-14T02:36:08;62149.75;;;1.50;90.81
6899;BME280;3488;42.616;23.350;2023-02-14T02:38:54;62143.63;;;1.44;91.29
6899;BME280;3488;42.616;23.350;2023-02-14T02:41:32;62151.78;;;1.50;90.95
6899;BME280;3488;42.616;23.350;2023-02-14T02:44:10;62150.72;;;1.49;89.90
6899;BME280;3488;42.616;23.350;2023-02-14T02:46:40;62151.81;;;1.52;89.13
6899;BME280;3488;42.616;23.350;2023-02-14T02:49:23;62153.25;;;1.49;89.53
6899;BME280;3488;42.616;23.350;2023-02-14T02:52:16;62164.44;;;1.55;88.85
6899;BME280;3488;42.616;23.350;2023-02-14T02:55:06;62158.38;;;1.54;87.83
6899;BME280;3488;42.616;23.350;2023-02-14T02:57:39;62156.84;;;1.52;87.70
6899;BME280;3488;42.616;23.350;2023-02-14T03:00:08;62154.91;;;1.55;88.00
6899;BME280;3488;42.616;23.350;2023-02-14T03:02:40;62157.81;;;1.51;87.75
6899;BME280;3488;42.616;23.350;2023-02-14T03:05:39;62158.38;;;1.54;89.16
6899;BME280;3488;42.616;23.350;2023-02-14T03:08:07;62157.91;;;1.56;89.50
6899;BME280;3488;42.616;23.350;2023-02-14T03:10:37;62148.69;;;1.47;90.11
6899;BME280;3488;42.616;23.350;2023-02-14T03:13:33;62153.72;;;1.47;90.42
6899;BME280;3488;42.616;23.350;2023-02-14T03:16:18;62150.69;;;1.46;90.45
6899;BME280;3488;42.616;23.350;2023-02-14T03:19:20;62148.22;;;1.49;90.34
6899;BME280;3488;42.616;23.350;2023-02-14T03:21:53;62148.63;;;1.44;90.37
6899;BME280;3488;42.616;23.350;2023-02-14T03:24:31;62144.59;;;1.43;90.73
6899;BME280;3488;42.616;23.350;2023-02-14T03:27:10;62145.03;;;1.41;90.40
6899;BME280;3488;42.616;23.350;2023-02-14T03:29:53;62136.94;;;1.38;90.52
6899;BME280;3488;42.616;23.350;2023-02-14T03:32:29;62136.44;;;1.37;90.24
6899;BME280;3488;42.616;23.350;2023-02-14T03:35:01;62137.97;;;1.39;90.04
6899;BME280;3488;42.616;23.350;2023-02-14T03:37:37;62137.41;;;1.36;90.65
6899;BME280;3488;42.616;23.350;2023-02-14T03:40:11;62135.78;;;1.32;90.68
6899;BME280;3488;42.616;23.350;2023-02-14T03:42:42;62132.28;;;1.31;90.92
6899;BME280;3488;42.616;23.350;2023-02-14T03:45:14;62121.63;;;1.25;91.07
6899;BME280;3488;42.616;23.350;2023-02-14T03:47:42;62126.09;;;1.25;91.45
6899;BME280;3488;42.616;23.350;2023-02-14T03:50:13;62133.25;;;1.29;91.48
6899;BME280;3488;42.616;23.350;2023-02-14T03:52:44;62122.06;;;1.23;91.40
6899;BME280;3488;42.616;23.350;2023-02-14T03:55:15;62128.56;;;1.22;90.27
6899;BME280;3488;42.616;23.350;2023-02-14T03:57:50;62125.59;;;1.24;89.71
6899;BME280;3488;42.616;23.350;2023-02-14T04:00:19;62134.72;;;1.28;89.41
6899;BME280;3488;42.616;23.350;2023-02-14T04:02:49;62123.59;;;1.25;89.96
6899;BME280;3488;42.616;23.350;2023-02-14T04:05:22;62124.00;;;1.20;89.76
6899;BME280;3488;42.616;23.350;2023-02-14T04:07:51;62121.91;;;1.15;89.89
6899;BME280;3488;42.616;23.350;2023-02-14T04:10:21;62119.44;;;1.18;89.18
6899;BME280;3488;42.616;23.350;2023-02-14T04:12:49;62121.50;;;1.20;89.45
6899;BME280;3488;42.616;23.350;2023-02-14T04:15:17;62124.06;;;1.23;89.49
6899;BME280;3488;42.616;23.350;2023-02-14T04:17:44;62117.84;;;1.14;89.81
6899;BME280;3488;42.616;23.350;2023-02-14T04:20:28;62120.34;;;1.14;90.28
6899;BME280;3488;42.616;23.350;2023-02-14T04:22:55;62106.69;;;1.08;91.02
6899;BME280;3488;42.616;23.350;2023-02-14T04:25:23;62111.75;;;1.10;91.12
6899;BME280;3488;42.616;23.350;2023-02-14T04:27:51;62108.63;;;1.05;90.96
6899;BME280;3488;42.616;23.350;2023-02-14T04:30:18;62109.19;;;1.08;91.47
6899;BME280;3488;42.616;23.350;2023-02-14T04:32:46;62098.97;;;1.00;91.73
6899;BME280;3488;42.616;23.350;2023-02-14T04:35:14;62104.09;;;1.05;91.31
6899;BME280;3488;42.616;23.350;2023-02-14T04:37:41;62108.63;;;1.05;90.40
6899;BME280;3488;42.616;23.350;2023-02-14T04:40:09;62110.28;;;1.11;89.58
6899;BME280;3488;42.616;23.350;2023-02-14T04:42:37;62113.22;;;1.09;89.14
6899;BME280;3488;42.616;23.350;2023-02-14T04:45:05;62109.72;;;1.08;89.41
6899;BME280;3488;42.616;23.350;2023-02-14T04:47:32;62106.13;;;1.05;89.32
6899;BME280;3488;42.616;23.350;2023-02-14T04:49:59;62108.09;;;1.04;90.07
6899;BME280;3488;42.616;23.350;2023-02-14T04:52:26;62105.06;;;1.04;90.56
6899;BME280;3488;42.616;23.350;2023-02-14T04:54:53;62105.06;;;1.04;91.04
6899;BME280;3488;42.616;23.350;2023-02-14T04:57:20;62099.38;;;0.96;90.76
6899;BME280;3488;42.616;23.350;2023-02-14T04:59:49;62106.06;;;1.02;90.10
6899;BME280;3488;42.616;23.350;2023-02-14T05:02:16;62102.47;;;0.99;89.71
6899;BME280;3488;42.616;23.350;2023-02-14T05:04:43;62099.94;;;0.99;90.26
6899;BME280;3488;42.616;23.350;2023-02-14T05:07:10;62101.94;;;0.98;89.91
6899;BME280;3488;42.616;23.350;2023-02-14T05:09:37;62105.03;;;1.01;88.54
6899;BME280;3488;42.616;23.350;2023-02-14T05:12:04;62099.94;;;0.99;88.43
6899;BME280;3488;42.616;23.350;2023-02-14T05:14:31;62107.66;;;1.06;88.10
6899;BME280;3488;42.616;23.350;2023-02-14T05:17:00;62094.88;;;0.96;89.06
6899;BME280;3488;42.616;23.350;2023-02-14T05:19:27;62090.25;;;0.92;88.95
6899;BME280;3488;42.616;23.350;2023-02-14T05:21:54;62104.00;;;1.00;82.38
6899;BME280;3488;42.616;23.350;2023-02-14T05:24:21;62101.00;;;1.00;80.75
6899;BME280;3488;42.616;23.350;2023-02-14T05:26:48;62110.16;;;1.06;84.68
6899;BME280;3488;42.616;23.350;2023-02-14T05:29:15;62111.25;;;1.10;86.63
6899;BME280;3488;42.616;23.350;2023-02-14T05:31:42;62112.72;;;1.09;87.23
6899;BME280;3488;42.616;23.350;2023-02-14T05:34:11;62109.63;;;1.06;87.24
6899;BME280;3488;42.616;23.350;2023-02-14T05:36:38;62115.28;;;1.11;87.71
6899;BME280;3488;42.616;23.350;2023-02-14T05:39:05;62111.75;;;1.10;88.30
6899;BME280;3488;42.616;23.350;2023-02-14T05:41:32;62112.25;;;1.11;87.64
6899;BME280;3488;42.616;23.350;2023-02-14T05:43:59;62103.53;;;1.02;88.82
6899;BME280;3488;42.616;23.350;2023-02-14T05:46:27;62107.09;;;1.03;89.37
6899;BME280;3488;42.616;23.350;2023-02-14T05:48:54;62114.25;;;1.10;88.61
6899;BME280;3488;42.616;23.350;2023-02-14T05:51:22;62117.28;;;1.11;89.45
6899;BME280;3488;42.616;23.350;2023-02-14T05:53:49;62116.25;;;1.10;89.71
6899;BME280;3488;42.616;23.350;2023-02-14T05:56:16;62115.81;;;1.12;89.82
6899;BME280;3488;42.616;23.350;2023-02-14T05:58:43;62114.31;;;1.13;89.35
6899;BME280;3488;42.616;23.350;2023-02-14T06:01:10;62109.59;;;1.03;89.42
6899;BME280;3488;42.616;23.350;2023-02-14T06:03:37;62119.97;;;1.18;89.79
6899;BME280;3488;42.616;23.350;2023-02-14T06:06:04;62112.38;;;1.16;89.73
6899;BME280;3488;42.616;23.350;2023-02-14T06:08:33;62123.03;;;1.22;88.81
6899;BME280;3488;42.616;23.350;2023-02-14T06:11:00;62133.88;;;1.35;87.84
6899;BME280;3488;42.616;23.350;2023-02-14T06:13:27;62140.47;;;1.39;87.17
6899;BME280;3488;42.616;23.350;2023-02-14T06:15:54;62142.94;;;1.36;88.08
6899;BME280;3488;42.616;23.350;2023-02-14T06:18:21;62138.94;;;1.37;87.89
6899;BME280;3488;42.616;23.350;2023-02-14T06:20:52;62150.69;;;1.46;88.33
6899;BME280;3488;42.616;23.350;2023-02-14T06:23:20;62157.41;;;1.55;88.48
6899;BME280;3488;42.616;23.350;2023-02-14T06:25:48;62159.97;;;1.58;87.61
6899;BME280;3488;42.616;23.350;2023-02-14T06:28:15;62168.66;;;1.64;87.38
6899;BME280;3488;42.616;23.350;2023-02-14T06:30:43;62174.34;;;1.72;86.96
6899;BME280;3488;42.616;23.350;2023-02-14T06:33:11;62196.88;;;1.91;86.30
6899;BME280;3488;42.616;23.350;2023-02-14T06:35:38;62197.97;;;1.95;86.35
6899;BME280;3488;42.616;23.350;2023-02-14T06:38:05;62206.63;;;2.01;86.76
6899;BME280;3488;42.616;23.350;2023-02-14T06:40:32;62216.88;;;2.11;86.34
6899;BME280;3488;42.616;23.350;2023-02-14T06:43:01;62232.34;;;2.28;85.61
6899;BME280;3488;42.616;23.350;2023-02-14T06:45:28;62252.31;;;2.46;84.75
6899;BME280;3488;42.616;23.350;2023-02-14T06:47:55;62244.75;;;2.43;84.67
6899;BME280;3488;42.616;23.350;2023-02-14T06:50:22;62236.50;;;2.35;84.54
6899;BME280;3488;42.616;23.350;2023-02-14T06:52:49;62233.44;;;2.32;85.45
6899;BME280;3488;42.616;23.350;2023-02-14T06:55:16;62235.94;;;2.32;85.41
6899;BME280;3488;42.616;23.350;2023-02-14T06:57:43;62240.00;;;2.33;85.50
6899;BME280;3488;42.616;23.350;2023-02-14T07:00:13;62233.84;;;2.27;85.99
6899;BME280;3488;42.616;23.350;2023-02-14T07:02:40;62238.00;;;2.34;85.60
6899;BME280;3488;42.616;23.350;2023-02-14T07:05:08;62237.94;;;2.31;85.89
6899;BME280;3488;42.616;23.350;2023-02-14T07:07:35;62240.09;;;2.38;86.00
6899;BME280;3488;42.616;23.350;2023-02-14T07:10:02;62247.72;;;2.41;86.27
6899;BME280;3488;42.616;23.350;2023-02-14T07:12:29;62251.31;;;2.45;86.14
6899;BME280;3488;42.616;23.350;2023-02-14T07:14:56;62260.06;;;2.56;85.70
6899;BME280;3488;42.616;23.350;2023-02-14T07:17:25;62260.06;;;2.56;86.30
6899;BME280;3488;42.616;23.350;2023-02-14T07:19:52;62267.28;;;2.63;86.27
6899;BME280;3488;42.616;23.350;2023-02-14T07:22:19;62262.59;;;2.56;86.43
6899;BME280;3488;42.616;23.350;2023-02-14T07:24:46;62277.53;;;2.73;86.48
6899;BME280;3488;42.616;23.350;2023-02-14T07:27:13;62268.34;;;2.66;85.34
6899;BME280;3488;42.616;23.350;2023-02-14T07:29:40;62295.53;;;2.90;85.72
6899;BME280;3488;42.616;23.350;2023-02-14T07:32:06;62293.38;;;2.83;85.63
6899;BME280;3488;42.616;23.350;2023-02-14T07:34:36;62289.38;;;2.84;86.20
6899;BME280;3488;42.616;23.350;2023-02-14T07:37:04;62294.50;;;2.89;87.59
6899;BME280;3488;42.616;23.350;2023-02-14T07:39:31;62309.28;;;2.99;86.82
6899;BME280;3488;42.616;23.350;2023-02-14T07:41:59;62303.75;;;2.98;86.63
6899;BME280;3488;42.616;23.350;2023-02-14T07:44:26;62298.16;;;2.95;86.95
6899;BME280;3488;42.616;23.350;2023-02-14T07:46:54;62299.09;;;2.91;87.05
6899;BME280;3488;42.616;23.350;2023-02-14T07:49:21;62291.94;;;2.87;88.27
6899;BME280;3488;42.616;23.350;2023-02-14T07:51:49;62269.28;;;2.62;89.57
6899;BME280;3488;42.616;23.350;2023-02-14T07:54:16;62278.03;;;2.71;89.83
6899;BME280;3488;42.616;23.350;2023-02-14T07:56:43;62271.38;;;2.67;89.56
6899;BME280;3488;42.616;23.350;2023-02-14T07:59:10;62273.38;;;2.66;90.01
6899;BME280;3488;42.616;23.350;2023-02-14T08:01:37;62280.56;;;2.73;90.28
6899;BME280;3488;42.616;23.350;2023-02-14T08:04:04;62272.94;;;2.68;90.64
6899;BME280;3488;42.616;23.350;2023-02-14T08:06:32;62274.91;;;2.68;91.31
6899;BME280;3488;42.616;23.350;2023-02-14T08:09:01;62274.47;;;2.70;90.77
6899;BME280;3488;42.616;23.350;2023-02-14T08:11:28;62258.19;;;2.61;91.89
6899;BME280;3488;42.616;23.350;2023-02-14T08:14:13;62264.25;;;2.62;92.06
6899;BME280;3488;42.616;23.350;2023-02-14T08:16:41;62270.75;;;2.61;92.21
6899;BME280;3488;42.616;23.350;2023-02-14T08:19:08;62274.34;;;2.65;92.38
6899;BME280;3488;42.616;23.350;2023-02-14T08:21:35;62274.97;;;2.70;92.04
6899;BME280;3488;42.616;23.350;2023-02-14T08:24:03;62255.41;;;2.49;93.82
6899;BME280;3488;42.616;23.350;2023-02-14T08:26:30;62268.81;;;2.64;93.19
6899;BME280;3488;42.616;23.350;2023-02-14T08:28:58;62262.13;;;2.58;93.71
6899;BME280;3488;42.616;23.350;2023-02-14T08:31:29;62261.06;;;2.54;94.24
6899;BME280;3488;42.616;23.350;2023-02-14T08:33:56;62262.53;;;2.53;94.24
6899;BME280;3488;42.616;23.350;2023-02-14T08:36:23;62269.34;;;2.65;93.84
6899;BME280;3488;42.616;23.350;2023-02-14T08:38:50;62258.44;;;2.49;94.65
6899;BME280;3488;42.616;23.350;2023-02-14T08:41:19;62251.41;;;2.50;95.93
6899;BME280;3488;42.616;23.350;2023-02-14T08:43:46;62274.47;;;2.70;95.81
6899;BME280;3488;42.616;23.350;2023-02-14T08:46:13;62250.91;;;2.49;97.54
6899;BME280;3488;42.616;23.350;2023-02-14T08:48:41;62252.94;;;2.51;98.86
6899;BME280;3488;42.616;23.350;2023-02-14T08:51:11;62250.34;;;2.46;99.60
6899;BME280;3488;42.616;23.350;2023-02-14T08:53:39;62218.94;;;2.13;100.00
6899;BME280;3488;42.616;23.350;2023-02-14T08:56:08;62233.31;;;2.27;100.00
6899;BME280;3488;42.616;23.350;2023-02-14T08:58:37;62212.84;;;2.09;100.00
6899;BME280;3488;42.616;23.350;2023-02-14T09:01:07;62227.69;;;2.21;100.00
6899;BME280;3488;42.616;23.350;2023-02-14T09:03:34;62232.25;;;2.23;100.00
6899;BME280;3488;42.616;23.350;2023-02-14T09:06:02;62201.03;;;1.98;100.00
6899;BME280;3488;42.616;23.350;2023-02-14T09:08:29;62213.41;;;2.12;100.00
6899;BME280;3488;42.616;23.350;2023-02-14T09:10:56;62228.25;;;2.24;100.00
6899;BME280;3488;42.616;23.350;2023-02-14T09:13:23;62206.16;;;2.03;100.00
6899;BME280;3488;42.616;23.350;2023-02-14T09:15:51;62215.47;;;2.14;100.00
6899;BME280;3488;42.616;23.350;2023-02-14T09:18:18;62237.44;;;2.31;100.00
6899;BME280;3488;42.616;23.350;2023-02-14T09:20:45;62238.53;;;2.34;100.00
6899;BME280;3488;42.616;23.350;2023-02-14T09:23:12;62244.69;;;2.41;100.00
6899;BME280;3488;42.616;23.350;2023-02-14T09:25:39;62234.00;;;2.35;100.00
6899;BME280;3488;42.616;23.350;2023-02-14T09:28:06;62243.59;;;2.37;100.00
6899;BME280;3488;42.616;23.350;2023-02-14T09:30:33;62251.81;;;2.45;100.00
6899;BME280;3488;42.616;23.350;2023-02-14T09:33:02;62250.84;;;2.47;100.00
6899;BME280;3488;42.616;23.350;2023-02-14T09:35:30;62259.63;;;2.58;100.00
6899;BME280;3488;42.616;23.350;2023-02-14T09:37:57;62272.94;;;2.68;100.00
6899;BME280;3488;42.616;23.350;2023-02-14T09:40:23;62262.09;;;2.55;100.00
6899;BME280;3488;42.616;23.350;2023-02-14T09:42:55;62295.41;;;2.85;100.00
6899;BME280;3488;42.616;23.350;2023-02-14T09:45:27;62287.31;;;2.82;99.34
6899;BME280;3488;42.616;23.350;2023-02-14T09:47:56;62294.97;;;2.87;98.19
6899;BME280;3488;42.616;23.350;2023-02-14T09:50:28;62298.09;;;2.93;96.13
6899;BME280;3488;42.616;23.350;2023-02-14T09:53:03;62312.50;;;3.07;95.38
6899;BME280;3488;42.616;23.350;2023-02-14T09:55:38;62295.03;;;2.90;94.28
6899;BME280;3488;42.616;23.350;2023-02-14T09:58:12;62296.63;;;2.94;94.80
6899;BME280;3488;42.616;23.350;2023-02-14T10:00:45;62290.41;;;2.85;95.64
6899;BME280;3488;42.616;23.350;2023-02-14T10:06:42;62284.63;;;2.75;96.07
6899;BME280;3488;42.616;23.350;2023-02-14T10:09:20;62265.28;;;2.63;96.43
6899;BME280;3488;42.616;23.350;2023-02-14T10:11:53;62284.16;;;2.77;96.21
6899;BME280;3488;42.616;23.350;2023-02-14T10:14:25;62264.16;;;2.57;97.11
6899;BME280;3488;42.616;23.350;2023-02-14T10:16:57;62279.03;;;2.72;96.99
6899;BME280;3488;42.616;23.350;2023-02-14T10:19:31;62286.75;;;2.79;96.59
6899;BME280;3488;42.616;23.350;2023-02-14T10:22:02;62269.41;;;2.67;96.26
6899;BME280;3488;42.616;23.350;2023-02-14T10:24:35;62272.81;;;2.63;95.41
6899;BME280;3488;42.616;23.350;2023-02-14T10:27:10;62270.75;;;2.61;94.96
6899;BME280;3488;42.616;23.350;2023-02-14T10:29:38;62275.41;;;2.66;94.38
6899;BME280;3488;42.616;23.350;2023-02-14T10:32:12;62256.47;;;2.52;95.35
6899;BME280;3488;42.616;23.350;2023-02-14T10:34:43;62260.06;;;2.56;96.26
6899;BME280;3488;42.616;23.350;2023-02-14T10:37:26;62272.94;;;2.68;95.30
6899;BME280;3488;42.616;23.350;2023-02-14T10:40:12;62287.31;;;2.82;94.68
6899;BME280;3488;42.616;23.350;2023-02-14T10:42:51;62276.97;;;2.70;93.15
6899;BME280;3488;42.616;23.350;2023-02-14T10:45:27;62275.91;;;2.66;93.29
6899;BME280;3488;42.616;23.350;2023-02-14T10:48:04;62267.69;;;2.58;93.60
6899;BME280;3488;42.616;23.350;2023-02-14T10:50:43;62273.38;;;2.66;93.04
6899;BME280;3488;42.616;23.350;2023-02-14T10:53:17;62263.19;;;2.59;93.03
6899;BME280;3488;42.616;23.350;2023-02-14T10:55:54;62282.13;;;2.75;92.66
6899;BME280;3488;42.616;23.350;2023-02-14T10:58:26;62269.34;;;2.65;93.12
6899;BME280;3488;42.616;23.350;2023-02-14T11:00:59;62267.16;;;2.58;92.62
6899;BME280;3488;42.616;23.350;2023-02-14T11:03:27;62272.38;;;2.65;92.76
6899;BME280;3488;42.616;23.350;2023-02-14T11:05:55;62235.94;;;2.32;95.67
6899;BME280;3488;42.616;23.350;2023-02-14T11:08:26;62236.84;;;2.28;96.91
6899;BME280;3488;42.616;23.350;2023-02-14T11:10:57;62235.94;;;2.32;96.16
6899;BME280;3488;42.616;23.350;2023-02-14T11:13:29;62233.41;;;2.29;96.93
6899;BME280;3488;42.616;23.350;2023-02-14T11:16:01;62242.06;;;2.35;96.48
6899;BME280;3488;42.616;23.350;2023-02-14T11:18:30;62253.47;;;2.52;94.74
6899;BME280;3488;42.616;23.350;2023-02-14T11:21:04;62257.56;;;2.56;93.52
6899;BME280;3488;42.616;23.350;2023-02-14T11:23:36;62281.09;;;2.74;92.69
6899;BME280;3488;42.616;23.350;2023-02-14T11:26:06;62260.06;;;2.56;93.18
6899;BME280;3488;42.616;23.350;2023-02-14T11:28:47;62256.44;;;2.50;94.37
6899;BME280;3488;42.616;23.350;2023-02-14T11:31:26;62255.81;;;2.44;94.29
6899;BME280;3488;42.616;23.350;2023-02-14T11:33:54;62253.88;;;2.47;93.86
6899;BME280;3488;42.616;23.350;2023-02-14T11:36:22;62247.16;;;2.38;94.13
6899;BME280;3488;42.616;23.350;2023-02-14T11:38:59;62227.28;;;2.26;94.44
6899;BME280;3488;42.616;23.350;2023-02-14T11:41:45;62233.41;;;2.29;95.07
6899;BME280;3488;42.616;23.350;2023-02-14T11:44:15;62232.88;;;2.29;94.96
6899;BME280;3488;42.616;23.350;2023-02-14T11:46:47;62217.97;;;2.14;95.99
6899;BME280;3488;42.616;23.350;2023-02-14T11:49:26;62231.22;;;2.22;95.77
6899;BME280;3488;42.616;23.350;2023-02-14T11:51:55;62233.97;;;2.32;94.89
6899;BME280;3488;42.616;23.350;2023-02-14T11:54:29;62244.03;;;2.35;94.41
6899;BME280;3488;42.616;23.350;2023-02-14T11:57:02;62255.34;;;2.46;94.18
6899;BME280;3488;42.616;23.350;2023-02-14T11:59:32;62252.50;;;2.53;93.03
6899;BME280;3488;42.616;23.350;2023-02-14T12:02:09;62262.09;;;2.55;91.69
6899;BME280;3488;42.616;23.350;2023-02-14T12:04:40;62264.19;;;2.60;89.64
6899;BME280;3488;42.616;23.350;2023-02-14T12:07:16;62278.03;;;2.71;88.22
6899;BME280;3488;42.616;23.350;2023-02-14T12:09:46;62282.13;;;2.75;87.36
6899;BME280;3488;42.616;23.350;2023-02-14T12:12:18;62286.28;;;2.81;87.67
6899;BME280;3488;42.616;23.350;2023-02-14T12:14:45;62294.00;;;2.89;86.39
6899;BME280;3488;42.616;23.350;2023-02-14T12:17:28;62297.13;;;2.94;86.22
6899;BME280;3488;42.616;23.350;2023-02-14T12:20:01;62297.59;;;2.92;86.26
6899;BME280;3488;42.616;23.350;2023-02-14T12:22:34;62295.59;;;2.93;86.06
6899;BME280;3488;42.616;23.350;2023-02-14T12:25:10;62312.44;;;3.04;86.11
6899;BME280;3488;42.616;23.350;2023-02-14T12:27:46;62309.41;;;3.04;84.83
6899;BME280;3488;42.616;23.350;2023-02-14T12:30:15;62309.97;;;3.07;84.52
6899;BME280;3488;42.616;23.350;2023-02-14T12:32:46;62311.97;;;3.06;84.38
6899;BME280;3488;42.616;23.350;2023-02-14T12:35:15;62318.53;;;3.08;85.29
6899;BME280;3488;42.616;23.350;2023-02-14T12:37:58;62324.75;;;3.16;84.59
6899;BME280;3488;42.616;23.350;2023-02-14T12:40:38;62315.50;;;3.07;84.50
6899;BME280;3488;42.616;23.350;2023-02-14T12:43:19;62307.28;;;2.99;85.07
6899;BME280;3488;42.616;23.350;2023-02-14T12:46:10;62321.13;;;3.10;85.77
6899;BME280;3488;42.616;23.350;2023-02-14T12:48:51;62312.50;;;3.07;85.36
6899;BME280;3488;42.616;23.350;2023-02-14T12:51:26;62331.44;;;3.23;85.53
6899;BME280;3488;42.616;23.350;2023-02-14T12:54:07;62317.06;;;3.09;85.43
6899;BME280;3488;42.616;23.350;2023-02-14T12:56:47;62306.84;;;3.01;85.99
6899;BME280;3488;42.616;23.350;2023-02-14T12:59:24;62312.88;;;3.02;85.19
6899;BME280;3488;42.616;23.350;2023-02-14T13:04:59;62317.06;;;3.09;86.37
6899;BME280;3488;42.616;23.350;2023-02-14T13:07:46;62311.41;;;3.03;86.96
6899;BME280;3488;42.616;23.350;2023-02-14T13:10:25;62316.09;;;3.10;87.04
6899;BME280;3488;42.616;23.350;2023-02-14T13:13:05;62295.63;;;2.95;87.87
6899;BME280;3488;42.616;23.350;2023-02-14T13:15:36;62309.28;;;2.99;88.39
6899;BME280;3488;42.616;23.350;2023-02-14T13:18:12;62318.66;;;3.13;87.62
6899;BME280;3488;42.616;23.350;2023-02-14T13:20:49;62298.09;;;2.93;88.91
6899;BME280;3488;42.616;23.350;2023-02-14T13:23:21;62296.63;;;2.94;88.79
6899;BME280;3488;42.616;23.350;2023-02-14T13:25:53;62308.38;;;3.03;88.90
6899;BME280;3488;42.616;23.350;2023-02-14T13:28:27;62319.63;;;3.11;89.03
6899;BME280;3488;42.616;23.350;2023-02-14T13:30:58;62321.69;;;3.13;89.01
6899;BME280;3488;42.616;23.350;2023-02-14T13:33:29;62321.06;;;3.08;88.90
6899;BME280;3488;42.616;23.350;2023-02-14T13:36:00;62319.75;;;3.16;88.56
6899;BME280;3488;42.616;23.350;2023-02-14T13:38:42;62315.06;;;3.09;88.83
6899;BME280;3488;42.616;23.350;2023-02-14T13:41:10;62318.13;;;3.12;89.44
6899;BME280;3488;42.616;23.350;2023-02-14T13:43:48;62315.56;;;3.10;89.86
6899;BME280;3488;42.616;23.350;2023-02-14T13:46:18;62315.50;;;3.07;90.35
6899;BME280;3488;42.616;23.350;2023-02-14T13:48:59;62303.28;;;3.00;90.84
6899;BME280;3488;42.616;23.350;2023-02-14T13:51:44;62288.84;;;2.84;92.27
6899;BME280;3488;42.616;23.350;2023-02-14T13:54:40;62294.97;;;2.87;92.01
6899;BME280;3488;42.616;23.350;2023-02-14T13:57:29;62290.84;;;2.83;92.30
6899;BME280;3488;42.616;23.350;2023-02-14T14:00:22;62281.66;;;2.77;93.20